Time;durP1;ratioP1;P1;durP2;ratioP2;P2;SDS_P1;SDS_P2;PMS_P1;PMS_P2;Temp;Humidity;BMP_temperature;BMP_pressure;BME280_temperature;BME280_humidity;BME280_pressure;Samples;Min_cycle;Max_cycle;Signal;HPM_P1;HPM_P2
2022/01/17 00:01:12;;;;;;;113.93;101.82;;;6.90;98.10;;;;;;4996256;28;20520;-87
2022/01/17 00:03:39;;;;;;;114.20;101.82;;;6.90;98.00;;;;;;4996895;28;20517;-86
2022/01/17 00:06:06;;;;;;;111.90;99.85;;;6.90;97.90;;;;;;4981052;28;20061;-86
2022/01/17 00:12:50;;;;;;;113.07;100.82;;;6.90;97.60;;;;;;4992351;28;20046;-86
2022/01/17 00:15:22;;;;;;;114.20;100.95;;;6.90;97.60;;;;;;4981501;28;20110;-87
2022/01/17 00:17:56;;;;;;;113.07;100.85;;;6.90;97.40;;;;;;4997232;28;20105;-87
2022/01/17 00:20:26;;;;;;;113.45;101.10;;;6.80;97.50;;;;;;4997657;28;20575;-85
2022/01/17 00:22:54;;;;;;;111.43;99.97;;;6.90;97.30;;;;;;4997185;28;20047;-87
2022/01/17 00:25:21;;;;;;;111.00;99.28;;;6.80;97.40;;;;;;4997061;28;20503;-86
2022/01/17 00:27:51;;;;;;;111.63;99.47;;;6.80;97.40;;;;;;4981159;28;20070;-86
2022/01/17 00:30:19;;;;;;;112.07;99.85;;;6.80;97.40;;;;;;4996999;28;20054;-87
2022/01/17 00:32:46;;;;;;;110.10;98.32;;;6.80;97.50;;;;;;4997309;28;20046;-87
2022/01/17 00:35:13;;;;;;;;;;;6.80;97.50;;;;;;4981327;28;20043;-86
2022/01/17 00:37:40;;;;;;;;;;;6.80;97.40;;;;;;4997987;28;20017;-86
2022/01/17 00:40:08;;;;;;;;;;;6.80;97.40;;;;;;5016025;28;19933;-87
2022/01/17 00:42:36;;;;;;;111.10;99.05;;;6.80;97.50;;;;;;4984086;28;19937;-86
2022/01/17 00:45:08;;;;;;;113.90;101.85;;;6.80;97.50;;;;;;4984390;28;20080;-87
2022/01/17 00:47:35;;;;;;;112.15;100.18;;;6.70;97.60;;;;;;4983882;28;20057;-86
2022/01/17 00:50:02;;;;;;;110.93;98.97;;;6.70;97.60;;;;;;5000437;28;20058;-87
2022/01/17 00:52:30;;;;;;;113.22;100.75;;;6.70;97.60;;;;;;5000442;28;20476;-86
2022/01/17 00:54:57;;;;;;;113.03;100.95;;;6.60;97.70;;;;;;4984258;28;20055;-87
2022/01/17 00:57:24;;;;;;;111.63;99.70;;;6.60;97.70;;;;;;4983984;28;20077;-87
2022/01/17 00:59:51;;;;;;;110.35;98.63;;;6.60;97.60;;;;;;5000249;28;20558;-87
2022/01/17 01:02:20;;;;;;;114.00;100.93;;;6.60;97.60;;;;;;5000236;28;20055;-87
2022/01/17 01:04:47;;;;;;;112.32;100.25;;;6.60;97.70;;;;;;4999908;28;20066;-86
2022/01/17 01:07:14;;;;;;;;;;;6.60;97.70;;;;;;5016724;28;20050;-87
2022/01/17 01:09:50;;;;;;;;;;;6.60;97.80;;;;;;4984622;28;19925;-87
2022/01/17 01:12:17;;;;;;;111.72;99.55;;;6.60;97.70;;;;;;5000389;28;19936;-87
2022/01/17 01:14:46;;;;;;;112.15;100.25;;;6.50;97.70;;;;;;4999972;28;20054;-87
2022/01/17 01:17:30;;;;;;;114.10;102.00;;;6.60;97.60;;;;;;4983434;28;20154;-87
2022/01/17 01:20:07;;;;;;;112.40;99.78;;;6.60;97.40;;;;;;4983349;28;20891;-87
2022/01/17 01:28:05;;;;;;;112.95;99.53;;;6.60;97.30;;;;;;4999820;28;20484;-87
2022/01/17 01:30:35;;;;;;;119.10;99.95;;;6.50;97.30;;;;;;4999878;28;20499;-86
2022/01/17 01:33:03;;;;;;;111.78;100.07;;;6.60;97.20;;;;;;4983786;28;20057;-87
2022/01/17 01:35:33;;;;;;;109.35;97.03;;;6.50;97.20;;;;;;4999758;28;20058;-87
2022/01/17 01:38:01;;;;;;;112.85;100.32;;;6.50;97.20;;;;;;4983547;28;20054;-86
2022/01/17 01:40:29;;;;;;;111.30;99.18;;;6.50;97.10;;;;;;4983093;28;20483;-88
2022/01/17 01:42:56;;;;;;;111.05;99.03;;;6.50;97.10;;;;;;4999246;28;20054;-87
2022/01/17 01:45:23;;;;;;;109.93;98.28;;;6.50;97.10;;;;;;4983347;28;20509;-86
2022/01/17 01:47:51;;;;;;;114.82;102.50;;;6.40;97.10;;;;;;4999465;28;20054;-87
2022/01/17 01:50:19;;;;;;;109.55;97.60;;;6.40;97.10;;;;;;4982774;28;20050;-87
2022/01/17 01:52:48;;;;;;;113.15;100.78;;;6.40;97.20;;;;;;4983307;28;20050;-87
2022/01/17 01:55:20;;;;;;;117.28;102.50;;;6.40;97.20;;;;;;4983248;28;20051;-87
2022/01/17 01:57:48;;;;;;;112.55;99.18;;;6.40;97.10;;;;;;4999450;28;20062;-86
2022/01/17 02:00:17;;;;;;;112.28;99.95;;;6.40;97.20;;;;;;4999792;28;20058;-87
2022/01/17 02:02:44;;;;;;;113.38;100.97;;;6.30;97.20;;;;;;4983141;28;20050;-87
2022/01/17 02:05:12;;;;;;;111.63;99.40;;;6.40;97.20;;;;;;4999736;28;20058;-87
2022/01/17 02:07:43;;;;;;;112.40;100.32;;;6.30;97.30;;;;;;4982932;28;20142;-87
2022/01/17 02:10:17;;;;;;;115.90;100.95;;;6.30;97.30;;;;;;4983184;28;20062;-87
2022/01/17 02:12:45;;;;;;;112.85;100.55;;;6.20;97.40;;;;;;4982964;28;20046;-87
2022/01/17 02:15:14;;;;;;;115.22;98.45;;;6.20;97.40;;;;;;4999131;28;20050;-87
2022/01/17 02:17:45;;;;;;;113.50;100.55;;;6.30;97.40;;;;;;4999237;28;20802;-87
2022/01/17 02:20:21;;;;;;;114.03;101.65;;;6.20;97.40;;;;;;4983099;28;20046;-87
2022/01/17 02:22:48;;;;;;;113.45;100.97;;;6.20;97.50;;;;;;4983225;28;20042;-87
2022/01/17 02:25:16;;;;;;;115.88;97.90;;;6.20;97.50;;;;;;4983581;28;20090;-87
2022/01/17 02:27:44;;;;;;;117.63;99.43;;;6.20;97.50;;;;;;4982990;28;20058;-87
2022/01/17 02:30:17;;;;;;;112.95;100.50;;;6.20;97.50;;;;;;4982597;28;20054;-87
2022/01/17 02:32:44;;;;;;;110.13;98.25;;;6.20;97.40;;;;;;4999246;28;20055;-87
2022/01/17 02:35:12;;;;;;;111.60;99.72;;;6.20;97.40;;;;;;4999217;28;20050;-87
2022/01/17 02:37:41;;;;;;;111.45;99.28;;;6.20;97.50;;;;;;4983096;28;20058;-88
2022/01/17 02:40:09;;;;;;;116.57;99.40;;;6.20;97.40;;;;;;4999558;28;20050;-87
2022/01/17 02:42:37;;;;;;;110.85;99.15;;;6.20;97.40;;;;;;4998892;28;20113;-87
2022/01/17 02:45:11;;;;;;;113.32;99.60;;;6.10;97.40;;;;;;4982939;28;20125;-87
2022/01/17 02:47:39;;;;;;;113.30;99.68;;;6.10;97.40;;;;;;4999135;28;20493;-87
2022/01/17 02:50:07;;;;;;;115.22;99.22;;;6.10;97.50;;;;;;4982650;28;20500;-87
2022/01/17 02:52:36;;;;;;;110.20;98.35;;;6.10;97.40;;;;;;4982686;28;20054;-88
2022/01/17 02:55:06;;;;;;;111.25;98.80;;;6.00;97.50;;;;;;4982719;28;20093;-87
2022/01/17 02:57:34;;;;;;;116.55;100.13;;;6.10;97.50;;;;;;4998467;28;20062;-88
2022/01/17 03:00:01;;;;;;;111.93;99.35;;;6.10;97.50;;;;;;4998852;28;20062;-87
2022/01/17 03:02:28;;;;;;;110.65;98.75;;;6.00;97.60;;;;;;4981628;28;20562;-86
2022/01/17 03:04:55;;;;;;;113.88;98.38;;;6.00;97.50;;;;;;4982405;28;20058;-87
2022/01/17 03:07:23;;;;;;;114.28;99.60;;;6.00;97.50;;;;;;4982601;28;20058;-87
2022/01/17 03:10:47;;;;;;;111.85;98.82;;;6.00;97.50;;;;;;5015645;28;20050;-88
2022/01/17 03:13:18;;;;;;;115.75;99.45;;;6.00;97.50;;;;;;4998180;28;20054;-87
2022/01/17 03:15:53;;;;;;;111.80;99.10;;;5.90;97.60;;;;;;4999036;28;20593;-87
2022/01/17 03:18:20;;;;;;;110.95;97.82;;;6.00;97.60;;;;;;4998200;28;20050;-87
2022/01/17 03:20:47;;;;;;;110.88;98.07;;;6.00;97.60;;;;;;4982371;28;20058;-86
2022/01/17 03:23:14;;;;;;;;;;;5.90;97.60;;;;;;4982592;28;20113;-87
2022/01/17 03:25:41;;;;;;;118.68;99.95;;;5.90;97.60;;;;;;5015151;28;19925;-87
2022/01/17 03:28:09;;;;;;;109.85;97.72;;;5.90;97.60;;;;;;4982018;28;20061;-87
2022/01/17 03:30:38;;;;;;;112.47;99.18;;;5.80;97.90;;;;;;4981919;28;20117;-87
2022/01/17 03:33:07;;;;;;;110.20;97.63;;;5.80;97.80;;;;;;4998219;28;20101;-87
2022/01/17 03:35:36;;;;;;;115.47;99.38;;;5.80;97.80;;;;;;4981634;28;20061;-87
2022/01/17 03:38:03;;;;;;;113.18;100.97;;;5.80;97.80;;;;;;4981799;28;20588;-87
2022/01/17 03:40:30;;;;;;;;;;;5.80;97.70;;;;;;4982796;28;20054;-87
2022/01/17 03:42:57;;;;;;;116.43;99.50;;;5.80;97.80;;;;;;5014351;28;20744;-87
2022/01/17 03:45:24;;;;;;;114.63;100.43;;;5.80;97.80;;;;;;4998228;28;20077;-85
2022/01/17 03:47:53;;;;;;;112.05;100.13;;;5.80;97.80;;;;;;4997978;28;20074;-87
2022/01/17 03:50:24;;;;;;;112.80;100.70;;;5.80;97.90;;;;;;5014199;28;20117;-88
2022/01/17 03:52:52;;;;;;;112.18;100.05;;;5.80;97.90;;;;;;4981522;28;20062;-87
2022/01/17 03:55:21;;;;;;;112.68;100.35;;;5.80;98.00;;;;;;4981661;28;20078;-87
2022/01/17 03:57:49;;;;;;;113.68;100.97;;;5.80;98.10;;;;;;4997659;28;20058;-86
2022/01/17 04:00:20;;;;;;;112.95;100.55;;;5.80;98.10;;;;;;4981414;28;20050;-87
2022/01/17 04:02:49;;;;;;;118.13;100.50;;;5.80;98.00;;;;;;4981199;28;20055;-87
2022/01/17 04:05:18;;;;;;;113.03;100.13;;;5.90;98.10;;;;;;4981440;28;20054;-86
2022/01/17 04:07:45;;;;;;;112.40;100.10;;;5.80;98.10;;;;;;4997906;28;20077;-87
2022/01/17 04:10:13;;;;;;;112.72;99.93;;;5.90;98.20;;;;;;4997499;28;20054;-87
2022/01/17 04:12:40;;;;;;;113.30;100.93;;;6.00;98.10;;;;;;4981785;28;20583;-87
2022/01/17 04:15:08;;;;;;;113.07;101.07;;;6.00;98.00;;;;;;5000974;28;20109;-87
2022/01/17 04:17:40;;;;;;;113.78;101.43;;;6.00;98.00;;;;;;4984651;28;20060;-87
2022/01/17 04:20:12;;;;;;;112.93;100.65;;;6.00;98.00;;;;;;5001137;28;20054;-87
2022/01/17 04:22:44;;;;;;;113.28;101.10;;;6.00;98.10;;;;;;4984774;28;20439;-86
2022/01/17 04:25:12;;;;;;;113.45;101.10;;;6.10;98.10;;;;;;4984549;28;20141;-87
2022/01/17 04:27:39;;;;;;;;;;;6.00;98.10;;;;;;4985033;28;20058;-87
2022/01/17 04:30:07;;;;;;;;;;;6.00;98.00;;;;;;5001968;28;20044;-87
2022/01/17 04:32:34;;;;;;;110.53;98.38;;;6.00;98.00;;;;;;5017910;28;19952;-87
2022/01/17 04:35:02;;;;;;;111.97;99.55;;;6.00;98.10;;;;;;5001014;28;20061;-87
2022/01/17 04:37:29;;;;;;;111.20;99.13;;;6.00;98.10;;;;;;5000889;28;20452;-87
2022/01/17 04:39:58;;;;;;;112.65;100.28;;;6.00;98.10;;;;;;4984915;28;20066;-87
2022/01/17 04:42:27;;;;;;;112.70;100.35;;;6.00;98.20;;;;;;5000712;28;20050;-87
2022/01/17 04:45:08;;;;;;;114.30;101.90;;;6.00;98.20;;;;;;4984499;28;20057;-86
2022/01/17 04:47:36;;;;;;;111.95;99.95;;;6.00;98.30;;;;;;4978237;28;20050;-87
2022/01/17 04:50:04;;;;;;;113.35;100.47;;;6.00;98.30;;;;;;5000551;28;20141;-87
2022/01/17 04:52:31;;;;;;;111.20;99.50;;;6.00;98.30;;;;;;5016855;28;20058;-87
2022/01/17 04:55:02;;;;;;;112.72;100.57;;;6.00;98.40;;;;;;4984327;28;20050;-87
2022/01/17 04:57:30;;;;;;;112.07;99.95;;;6.00;98.40;;;;;;5000338;28;20069;-86
2022/01/17 04:59:57;;;;;;;118.93;100.95;;;6.00;98.40;;;;;;5000311;28;20059;-87
2022/01/17 05:02:25;;;;;;;;;;;6.00;98.50;;;;;;5000894;28;20050;-87
2022/01/17 05:08:58;;;;;;;113.60;99.18;;;6.00;98.70;;;;;;4997115;28;20129;-86
2022/01/17 05:11:30;;;;;;;112.63;100.18;;;6.00;98.80;;;;;;5000305;28;20054;-87
2022/01/17 05:13:57;;;;;;;115.07;101.47;;;6.10;98.80;;;;;;4984067;28;20054;-87
2022/01/17 05:16:32;;;;;;;113.35;100.95;;;6.10;98.90;;;;;;4983935;28;20109;-87
2022/01/17 05:21:44;;;;;;;114.60;101.05;;;6.20;99.00;;;;;;4999832;28;20089;-87
2022/01/17 05:24:11;;;;;;;115.90;101.85;;;6.20;99.00;;;;;;4983551;28;20046;-87
2022/01/17 05:26:41;;;;;;;113.30;100.68;;;6.30;99.00;;;;;;4982995;28;20133;-86
2022/01/17 05:29:08;;;;;;;111.57;99.18;;;6.30;99.00;;;;;;4983493;28;20066;-86
2022/01/17 05:31:35;;;;;;;111.57;99.18;;;6.30;99.00;;;;;;4983637;28;20109;-87
2022/01/17 05:34:02;;;;;;;112.82;99.03;;;6.40;99.00;;;;;;4983641;28;20054;-87
2022/01/17 05:36:29;;;;;;;115.07;102.55;;;6.30;99.00;;;;;;4983591;28;20058;-87
2022/01/17 05:38:56;;;;;;;112.82;100.32;;;6.40;99.00;;;;;;4983468;28;20763;-87
2022/01/17 05:41:24;;;;;;;112.90;100.70;;;6.40;99.00;;;;;;4983275;28;20042;-87
2022/01/17 05:43:52;;;;;;;113.18;100.95;;;6.40;99.00;;;;;;4999104;28;20101;-87
2022/01/17 05:46:19;;;;;;;113.80;101.57;;;6.50;99.10;;;;;;4999660;28;20059;-87
2022/01/17 05:48:46;;;;;;;112.53;100.53;;;6.50;99.10;;;;;;4983153;28;20677;-87
2022/01/17 05:51:14;;;;;;;113.57;101.30;;;6.60;99.00;;;;;;4999614;28;20133;-87
2022/01/17 05:53:43;;;;;;;111.20;98.90;;;6.60;99.00;;;;;;4983265;28;20629;-86
2022/01/17 05:56:10;;;;;;;113.18;100.82;;;6.60;99.00;;;;;;4999693;28;20054;-86
2022/01/17 05:58:37;;;;;;;;;;;6.60;99.00;;;;;;4999639;28;20058;-87
2022/01/17 06:01:06;;;;;;;113.97;101.63;;;6.70;99.10;;;;;;4999725;28;20016;-87
2022/01/17 06:03:33;;;;;;;121.97;100.93;;;6.70;99.10;;;;;;4982843;28;20552;-86
2022/01/17 06:06:03;;;;;;;112.57;100.60;;;6.70;99.20;;;;;;5015605;28;20137;-86
2022/01/17 06:08:31;;;;;;;113.32;101.10;;;6.70;99.10;;;;;;4982864;28;20059;-86
2022/01/17 06:10:58;;;;;;;113.80;101.43;;;6.70;99.10;;;;;;4999171;28;20053;-87
2022/01/17 06:13:25;;;;;;;114.70;101.20;;;6.70;99.40;;;;;;4982890;28;20424;-86
2022/01/17 06:15:53;;;;;;;113.30;100.95;;;6.70;99.20;;;;;;4983054;28;20133;-87
2022/01/17 06:18:21;;;;;;;;;;;6.70;99.20;;;;;;4983015;28;20050;-87
2022/01/17 06:20:48;;;;;;;115.40;102.90;;;6.70;99.20;;;;;;5015451;28;20016;-87
2022/01/17 06:23:15;;;;;;;;;;;6.80;99.20;;;;;;4982790;28;20050;-86
2022/01/17 06:25:43;;;;;;;114.03;100.38;;;6.80;99.30;;;;;;5031801;28;19925;-87
2022/01/17 06:28:10;;;;;;;119.35;102.60;;;6.80;99.30;;;;;;4982102;28;20189;-86
2022/01/17 06:30:37;;;;;;;115.10;102.53;;;6.80;99.30;;;;;;4999030;28;20058;-86
2022/01/17 06:33:06;;;;;;;113.88;101.68;;;6.80;99.30;;;;;;4982155;28;20074;-87
2022/01/17 06:35:35;;;;;;;116.00;103.60;;;6.80;99.30;;;;;;5015266;28;20080;-88
2022/01/17 06:38:03;;;;;;;115.05;102.60;;;6.80;99.30;;;;;;4997548;28;20054;-87
2022/01/17 06:40:30;;;;;;;115.25;102.95;;;6.80;99.30;;;;;;4998866;28;20086;-87
2022/01/17 06:42:58;;;;;;;114.95;101.70;;;6.80;99.30;;;;;;4982350;28;20587;-87
2022/01/17 06:45:25;;;;;;;;;;;6.80;99.20;;;;;;4999139;28;20055;-87
2022/01/17 06:47:52;;;;;;;;;;;6.80;99.30;;;;;;4999014;28;20377;-86
2022/01/17 06:50:19;;;;;;;118.07;102.45;;;6.80;99.30;;;;;;5031633;28;19925;-87
2022/01/17 06:52:48;;;;;;;;;;;6.90;99.30;;;;;;4982266;28;20051;-87
2022/01/17 06:55:15;;;;;;;114.45;101.45;;;6.90;99.40;;;;;;5014805;28;20384;-86
2022/01/17 06:57:42;;;;;;;115.28;102.68;;;6.90;99.40;;;;;;4998398;28;20059;-86
2022/01/17 07:00:12;;;;;;;;;;;6.90;99.50;;;;;;4982299;28;20145;-86
2022/01/17 07:02:39;;;;;;;119.88;102.07;;;6.90;99.50;;;;;;4982277;28;19937;-87
2022/01/17 07:05:08;;;;;;;121.78;104.50;;;6.80;99.50;;;;;;4997969;28;20055;-87
2022/01/17 07:07:35;;;;;;;115.60;103.20;;;6.90;99.60;;;;;;4997632;28;20098;-87
2022/01/17 07:10:05;;;;;;;;;;;6.90;99.60;;;;;;4998519;28;20061;-87
2022/01/17 07:12:35;;;;;;;115.03;102.55;;;6.90;99.70;;;;;;4981775;28;20712;-87
2022/01/17 07:15:04;;;;;;;116.47;102.57;;;6.90;99.70;;;;;;4981865;28;20054;-86
2022/01/17 07:17:31;;;;;;;123.75;103.90;;;6.90;99.70;;;;;;4981540;28;20054;-87
2022/01/17 07:19:58;;;;;;;115.90;103.30;;;6.90;99.80;;;;;;4998026;28;20082;-86
2022/01/17 07:22:27;;;;;;;;;;;7.00;99.70;;;;;;4982050;28;20054;-86
2022/01/17 07:24:56;;;;;;;115.75;103.00;;;7.00;99.80;;;;;;4998093;28;19925;-86
2022/01/17 07:27:25;;;;;;;121.20;103.85;;;7.00;99.80;;;;;;4974258;28;20152;-87
2022/01/17 07:29:52;;;;;;;116.22;103.43;;;7.00;99.80;;;;;;4997539;28;20054;-86
2022/01/17 07:32:19;;;;;;;115.85;103.10;;;7.00;99.80;;;;;;4981459;28;20046;-87
2022/01/17 07:34:46;;;;;;;116.40;103.55;;;7.00;99.80;;;;;;4998025;28;20505;-87
2022/01/17 07:37:14;;;;;;;115.50;102.70;;;7.10;99.90;;;;;;4997983;28;20050;-87
2022/01/17 07:39:43;;;;;;;118.40;103.53;;;7.10;99.90;;;;;;4981764;28;20065;-86
2022/01/17 07:42:37;;;;;;;118.32;103.35;;;7.10;99.90;;;;;;4982546;28;20056;-87
2022/01/17 07:45:10;;;;;;;120.30;105.25;;;7.10;99.90;;;;;;4980745;28;20057;-84
2022/01/17 07:47:45;;;;;;;123.10;104.53;;;7.10;99.90;;;;;;4979718;28;20061;-85
2022/01/17 07:50:15;;;;;;;118.18;105.38;;;7.10;99.90;;;;;;4995819;28;20056;-84
2022/01/17 07:52:43;;;;;;;117.03;103.68;;;7.10;99.90;;;;;;4999581;28;20050;-81
2022/01/17 07:55:11;;;;;;;117.88;105.18;;;7.10;99.90;;;;;;4998016;28;20049;-82
2022/01/17 07:57:42;;;;;;;118.88;104.00;;;7.20;99.90;;;;;;4999773;28;20054;-86
2022/01/17 08:00:11;;;;;;;121.25;104.82;;;7.20;99.90;;;;;;4999073;28;20046;-83
2022/01/17 08:02:46;;;;;;;117.28;104.50;;;7.10;99.90;;;;;;5032920;28;20054;-83
2022/01/17 08:05:14;;;;;;;117.55;104.70;;;7.20;99.90;;;;;;5019898;28;20061;-83
2022/01/17 08:07:41;;;;;;;123.65;104.13;;;7.20;99.90;;;;;;4998708;28;20050;-82
2022/01/17 08:10:12;;;;;;;123.82;103.68;;;7.20;99.90;;;;;;5014685;28;20518;-81
2022/01/17 08:12:41;;;;;;;120.30;104.53;;;7.20;99.90;;;;;;4999210;28;20514;-84
2022/01/17 08:15:09;;;;;;;121.85;106.72;;;7.20;99.90;;;;;;5011947;28;20069;-84
2022/01/17 08:17:36;;;;;;;119.18;104.22;;;7.20;99.90;;;;;;4999483;28;20054;-84
2022/01/17 08:20:05;;;;;;;125.40;105.50;;;7.20;99.90;;;;;;5015627;28;20050;-84
2022/01/17 08:22:32;;;;;;;122.78;104.25;;;7.20;99.90;;;;;;5015661;28;20057;-81
2022/01/17 08:24:59;;;;;;;123.88;105.00;;;7.20;99.90;;;;;;5014704;28;20057;-84
2022/01/17 08:27:29;;;;;;;;;;;7.30;99.90;;;;;;5015809;28;20517;-85
2022/01/17 08:29:57;;;;;;;128.18;102.78;;;7.30;99.90;;;;;;4997642;28;19988;-86
2022/01/17 08:32:28;;;;;;;120.10;103.93;;;7.30;99.90;;;;;;4999246;28;20046;-85
2022/01/17 08:34:57;;;;;;;128.93;105.82;;;7.30;99.90;;;;;;4999129;28;20053;-85
2022/01/17 08:37:25;;;;;;;122.68;103.93;;;7.30;99.90;;;;;;5015366;28;20077;-84
2022/01/17 08:39:53;;;;;;;122.45;103.30;;;7.40;99.90;;;;;;4998492;28;20951;-86
2022/01/17 08:42:20;;;;;;;123.63;103.28;;;7.40;99.90;;;;;;5016890;28;20053;-84
2022/01/17 08:44:49;;;;;;;125.10;105.10;;;7.40;99.90;;;;;;5014275;28;20053;-84
2022/01/17 08:47:18;;;;;;;119.90;103.60;;;7.40;99.90;;;;;;4998934;28;20054;-83
2022/01/17 08:49:47;;;;;;;121.47;104.07;;;7.40;99.90;;;;;;5015752;28;20049;-83
2022/01/17 08:52:15;;;;;;;116.50;103.60;;;7.40;99.90;;;;;;5009141;28;20060;-83
2022/01/17 08:54:42;;;;;;;125.72;103.90;;;7.40;99.90;;;;;;5034830;28;20053;-83
2022/01/17 08:57:09;;;;;;;123.78;103.80;;;7.40;99.90;;;;;;5034815;28;20137;-83
2022/01/17 08:59:36;;;;;;;127.72;103.85;;;7.50;99.90;;;;;;5034465;28;20057;-84
2022/01/17 09:02:04;;;;;;;122.70;103.78;;;7.50;99.90;;;;;;5038034;28;20137;-83
2022/01/17 09:04:35;;;;;;;123.57;102.97;;;7.60;99.90;;;;;;5021776;28;20147;-84
2022/01/17 09:07:02;;;;;;;133.57;104.40;;;7.60;99.90;;;;;;5027060;28;20056;-82
2022/01/17 09:09:29;;;;;;;127.97;105.00;;;7.60;99.90;;;;;;5001082;28;20057;-82
2022/01/17 09:11:56;;;;;;;127.30;104.63;;;7.50;99.90;;;;;;5017855;28;20046;-82
2022/01/17 09:14:23;;;;;;;124.43;105.25;;;7.60;99.90;;;;;;5001817;28;20101;-82
2022/01/17 09:16:50;;;;;;;134.60;105.78;;;7.60;99.90;;;;;;5001738;28;20088;-83
2022/01/17 09:19:17;;;;;;;123.57;103.18;;;7.60;99.90;;;;;;5018436;28;20137;-83
2022/01/17 09:21:46;;;;;;;121.85;104.60;;;7.60;99.90;;;;;;4977539;28;20074;-83
2022/01/17 09:24:13;;;;;;;130.65;104.03;;;7.60;99.90;;;;;;4909609;28;123351;-82
2022/01/17 09:26:40;;;;;;;121.40;105.47;;;7.60;99.90;;;;;;4982458;28;20141;-81
2022/01/17 09:29:07;;;;;;;;;;;7.70;99.90;;;;;;5000290;28;20046;-82
2022/01/17 09:31:34;;;;;;;;;;;7.70;99.90;;;;;;5035230;28;19929;-77
2022/01/17 09:34:01;;;;;;;131.82;103.82;;;7.70;99.90;;;;;;5035058;28;19926;-80
2022/01/17 09:36:33;;;;;;;;;;;7.70;99.90;;;;;;5018531;28;20057;-81
2022/01/17 09:39:02;;;;;;;130.05;104.68;;;7.70;99.90;;;;;;5036117;28;19975;-82
2022/01/17 09:41:31;;;;;;;130.93;104.95;;;7.70;99.90;;;;;;5017755;28;20054;-81
2022/01/17 09:44:27;;;;;;;124.53;103.28;;;7.80;99.90;;;;;;5018116;28;20049;-82
2022/01/17 09:46:56;;;;;;;122.82;104.95;;;7.80;99.90;;;;;;5017712;28;20061;-80
2022/01/17 09:49:29;;;;;;;128.25;104.93;;;7.80;99.90;;;;;;5016927;28;20042;-81
2022/01/17 09:52:13;;;;;;;129.43;105.57;;;7.80;99.90;;;;;;5020845;28;20080;-77
2022/01/17 09:54:44;;;;;;;131.48;101.88;;;7.90;99.90;;;;;;5032738;28;20116;-81
2022/01/17 09:57:12;;;;;;;126.72;103.72;;;7.90;99.90;;;;;;5015542;28;20102;-81
2022/01/17 09:59:41;;;;;;;123.93;106.60;;;7.90;99.90;;;;;;5017552;28;20090;-85
2022/01/17 10:02:09;;;;;;;128.32;106.68;;;8.00;99.90;;;;;;4997869;28;20141;-80
2022/01/17 10:04:37;;;;;;;129.65;106.47;;;8.00;99.90;;;;;;5020017;28;20487;-81
2022/01/17 10:07:06;;;;;;;123.88;105.38;;;8.00;99.90;;;;;;5036880;28;20057;-78
2022/01/17 10:09:35;;;;;;;123.47;107.57;;;8.10;99.90;;;;;;5004857;28;20113;-81
2022/01/17 10:12:07;;;;;;;133.25;105.28;;;8.10;99.90;;;;;;4996762;28;20063;-81
2022/01/17 10:14:37;;;;;;;124.85;106.32;;;8.10;99.90;;;;;;5012358;28;20081;-80
2022/01/17 10:17:06;;;;;;;142.32;124.18;;;8.20;99.90;;;;;;5024130;28;20200;-80
2022/01/17 10:19:33;;;;;;;121.05;106.35;;;8.20;99.90;;;;;;4992626;28;20503;-81
2022/01/17 10:22:07;;;;;;;131.40;105.07;;;8.20;99.90;;;;;;5017052;28;20145;-77
2022/01/17 10:24:42;;;;;;;123.38;103.32;;;8.30;99.90;;;;;;5010790;28;20066;-83
2022/01/17 10:27:26;;;;;;;124.57;106.13;;;8.30;99.90;;;;;;5015534;28;20055;-82
2022/01/17 10:35:23;;;;;;;121.18;105.05;;;8.40;99.90;;;;;;5016589;28;20125;-79
2022/01/17 10:38:04;;;;;;;122.13;106.18;;;8.40;99.90;;;;;;5020816;28;20108;-82
2022/01/17 10:40:33;;;;;;;122.05;106.70;;;8.40;99.90;;;;;;5029631;28;20046;-84
2022/01/17 10:43:04;;;;;;;124.05;105.40;;;8.50;99.90;;;;;;5001481;28;20149;-81
2022/01/17 10:45:37;;;;;;;123.60;105.47;;;8.50;99.90;;;;;;4999177;28;20507;-84
2022/01/17 10:48:06;;;;;;;131.57;104.22;;;8.50;99.90;;;;;;5051668;28;20057;-84
2022/01/17 10:50:36;;;;;;;127.40;104.25;;;8.60;99.90;;;;;;5011489;28;20088;-84
2022/01/17 10:53:05;;;;;;;131.27;106.90;;;8.60;99.90;;;;;;5004896;28;20054;-84
2022/01/17 10:55:34;;;;;;;131.60;109.20;;;8.60;99.90;;;;;;5012163;28;20053;-83
2022/01/17 10:58:04;;;;;;;129.95;105.95;;;8.70;99.90;;;;;;5034875;28;20129;-83
2022/01/17 11:00:35;;;;;;;130.85;107.47;;;8.70;99.90;;;;;;5002172;28;20188;-83
2022/01/17 11:03:04;;;;;;;130.13;108.72;;;8.70;99.90;;;;;;5003843;28;20129;-83
2022/01/17 11:05:32;;;;;;;133.93;106.22;;;8.80;99.90;;;;;;5010817;28;20175;-83
2022/01/17 11:08:02;;;;;;;130.63;107.90;;;8.80;99.90;;;;;;5016161;28;20140;-83
2022/01/17 11:10:32;;;;;;;131.63;106.32;;;8.80;99.90;;;;;;5043916;28;20140;-84
2022/01/17 11:13:03;;;;;;;130.80;106.20;;;8.90;99.90;;;;;;5016140;28;20042;-83
2022/01/17 11:15:33;;;;;;;125.50;106.50;;;8.90;99.90;;;;;;5016469;28;20046;-83
2022/01/17 11:18:05;;;;;;;138.45;108.63;;;9.00;99.90;;;;;;5027945;28;20460;-83
2022/01/17 11:20:34;;;;;;;127.97;106.53;;;9.00;99.90;;;;;;5018749;28;20053;-84
2022/01/17 11:23:02;;;;;;;136.57;107.25;;;9.00;99.90;;;;;;5013514;28;20058;-84
2022/01/17 11:25:32;;;;;;;128.15;105.32;;;9.00;99.90;;;;;;4999652;28;20424;-83
2022/01/17 11:28:00;;;;;;;130.90;105.63;;;9.00;99.90;;;;;;4999703;28;20136;-83
2022/01/17 11:30:29;;;;;;;126.60;105.75;;;9.00;99.90;;;;;;5009468;28;20132;-84
2022/01/17 11:32:56;;;;;;;133.52;108.07;;;9.10;99.90;;;;;;5014312;28;20137;-84
2022/01/17 11:35:25;;;;;;;127.50;106.93;;;9.10;99.90;;;;;;4986233;28;20496;-84
2022/01/17 11:37:55;;;;;;;129.10;107.07;;;9.10;99.90;;;;;;5002786;28;20049;-84
2022/01/17 11:40:28;;;;;;;135.13;106.07;;;9.10;99.90;;;;;;5016649;28;20058;-83
2022/01/17 11:42:55;;;;;;;127.75;108.25;;;9.20;99.90;;;;;;5012998;28;20066;-84
2022/01/17 11:45:39;;;;;;;133.32;109.82;;;9.20;99.90;;;;;;4999412;28;20149;-83
2022/01/17 11:48:25;;;;;;;130.48;108.03;;;9.30;99.90;;;;;;5006931;28;20049;-83
2022/01/17 11:50:55;;;;;;;127.60;107.90;;;9.30;99.90;;;;;;5031022;28;20144;-84
2022/01/17 11:53:51;;;;;;;134.88;107.30;;;9.30;99.90;;;;;;4991650;28;20135;-81
2022/01/17 11:56:44;;;;;;;136.20;108.32;;;9.40;99.90;;;;;;4999207;28;20133;-83
2022/01/17 11:59:44;;;;;;;136.45;107.22;;;9.40;99.90;;;;;;5002235;28;20148;-85
2022/01/17 12:02:30;;;;;;;136.85;107.78;;;9.50;99.90;;;;;;5012444;28;20053;-86
2022/01/17 12:05:37;;;;;;;136.85;105.50;;;9.50;99.90;;;;;;5000822;28;20053;-85
2022/01/17 12:08:09;;;;;;;130.40;106.95;;;9.60;99.90;;;;;;4999196;28;20116;-84
2022/01/17 12:10:48;;;;;;;133.15;107.57;;;9.70;99.90;;;;;;4998366;28;20046;-83
2022/01/17 12:13:42;;;;;;;126.63;107.53;;;9.70;99.90;;;;;;5031902;28;20095;-83
2022/01/17 12:16:17;;;;;;;130.57;105.90;;;9.70;99.90;;;;;;5015753;28;20054;-83
2022/01/17 12:18:49;;;;;;;136.93;107.57;;;9.80;99.90;;;;;;4998801;28;20534;-82
2022/01/17 12:21:32;;;;;;;123.80;109.00;;;9.80;99.90;;;;;;5017001;28;20084;-83
2022/01/17 12:24:47;;;;;;;137.23;111.63;;;9.90;99.90;;;;;;4913851;28;20505;-82
2022/01/17 12:27:19;;;;;;;129.95;106.72;;;9.90;99.90;;;;;;4954225;28;20063;-80
2022/01/17 12:29:52;;;;;;;125.15;106.72;;;9.90;99.70;;;;;;4975248;28;20060;-80
2022/01/17 12:32:47;;;;;;;126.30;108.13;;;10.00;99.80;;;;;;5009704;28;20573;-80
2022/01/17 12:35:19;;;;;;;127.93;106.32;;;10.00;99.70;;;;;;4987005;28;20050;-79
2022/01/17 12:37:50;;;;;;;125.85;106.45;;;10.00;99.70;;;;;;5027749;28;20132;-79
2022/01/17 12:40:20;;;;;;;130.88;109.97;;;10.00;99.60;;;;;;5008015;28;20930;-79
2022/01/17 12:42:57;;;;;;;123.93;106.82;;;10.00;99.70;;;;;;5019133;28;20050;-79
2022/01/17 12:45:28;;;;;;;125.15;106.80;;;10.10;99.70;;;;;;5035061;28;20052;-79
2022/01/17 12:47:56;;;;;;;124.25;106.40;;;10.10;99.60;;;;;;5034307;28;20470;-78
2022/01/17 12:50:27;;;;;;;126.63;107.03;;;10.10;99.70;;;;;;5020085;28;20502;-79
2022/01/17 12:52:56;;;;;;;130.65;106.75;;;10.20;99.60;;;;;;5020820;28;20065;-78
2022/01/17 12:55:25;;;;;;;128.90;108.60;;;10.20;99.60;;;;;;5033463;28;20053;-79
2022/01/17 12:57:52;;;;;;;126.50;107.95;;;10.20;99.60;;;;;;5034401;28;20042;-78
2022/01/17 13:00:22;;;;;;;126.13;107.85;;;10.20;99.60;;;;;;5017060;28;20443;-79
2022/01/17 13:02:51;;;;;;;123.82;108.63;;;10.30;99.50;;;;;;4999278;28;20038;-80
2022/01/17 13:05:25;;;;;;;129.15;108.90;;;10.20;99.40;;;;;;5029598;28;20053;-79